Time;durP1;ratioP1;P1;durP2;ratioP2;P2;SDS_P1;SDS_P2;PMS_P1;PMS_P2;Temp;Humidity;BMP_temperature;BMP_pressure;BME280_temperature;BME280_humidity;BME280_pressure;Samples;Min_cycle;Max_cycle;Signal;HPM_P1;HPM_P2
2023/09/24 00:02:11;;;;;;;2.53;2.33;;;;;;;12.03;56.11;100493.97;10372199;28;20335;-36
2023/09/24 00:07:14;;;;;;;2.63;2.33;;;;;;;11.39;56.43;100606.59;10379531;28;20351;-37
2023/09/24 00:12:17;;;;;;;2.43;2.17;;;;;;;9.90;60.37;100620.69;10396635;28;20825;-37
2023/09/24 00:17:19;;;;;;;3.30;2.50;;;;;;;11.58;57.21;100448.06;10400276;28;20651;-37
2023/09/24 00:22:21;;;;;;;4.10;2.20;;;;;;;11.94;55.53;100519.13;10397541;28;20240;-36
2023/09/24 00:27:27;;;;;;;2.90;2.50;;;;;;;11.09;55.75;100632.25;10397187;28;20236;-36
2023/09/24 00:32:30;;;;;;;6.30;2.67;;;;;;;10.86;57.03;100566.75;10398547;28;20697;-36
2023/09/24 00:37:35;;;;;;;6.93;2.83;;;;;;;12.04;55.31;100482.19;10395950;28;20972;-37
2023/09/24 00:42:37;;;;;;;2.43;2.23;;;;;;;12.14;53.94;100554.41;10395788;28;20248;-36
2023/09/24 00:47:42;;;;;;;4.83;2.40;;;;;;;11.51;56.24;100599.03;10399389;28;20302;-36
2023/09/24 00:52:45;;;;;;;5.20;2.77;;;;;;;11.59;55.71;100569.50;10399367;28;20239;-37
2023/09/24 00:57:49;;;;;;;3.00;2.70;;;;;;;11.33;55.64;100618.81;10394445;28;20242;-36
2023/09/24 01:02:51;;;;;;;4.87;2.60;;;;;;;12.26;54.51;100512.75;10392280;28;20604;-36
2023/09/24 01:07:54;;;;;;;3.80;2.60;;;;;;;12.03;54.66;100536.88;10376469;28;20620;-37
2023/09/24 01:13:00;;;;;;;4.63;2.70;;;;;;;12.39;53.67;100524.75;10394105;28;20225;-37
2023/09/24 01:18:03;;;;;;;3.07;2.77;;;;;;;12.31;53.53;100558.66;10398347;28;20911;-36
2023/09/24 01:23:05;;;;;;;3.03;2.40;;;;;;;11.50;54.55;100638.38;10397543;28;20237;-37
2023/09/24 01:28:07;;;;;;;3.90;2.50;;;;;;;9.89;58.47;100672.50;10395114;28;20604;-36
2023/09/24 01:33:09;;;;;;;3.67;2.60;;;;;;;9.73;59.09;100619.72;10396705;28;20271;-37
2023/09/24 01:38:11;;;;;;;5.20;2.80;;;;;;;11.94;54.43;100476.22;10378278;28;20235;-36
2023/09/24 01:43:14;;;;;;;4.73;2.80;;;;;;;12.50;52.62;100492.13;10401525;28;20229;-37
2023/09/24 01:48:17;;;;;;;8.63;2.77;;;;;;;11.47;54.47;100622.66;10397504;28;20698;-36
2023/09/24 01:53:19;;;;;;;4.23;2.73;;;;;;;11.37;54.19;100590.69;10394646;28;20879;-38
2023/09/24 01:58:21;;;;;;;3.93;2.43;;;;;;;10.12;55.88;100724.44;10393113;28;20749;-37
2023/09/24 02:03:23;;;;;;;3.30;2.67;;;;;;;9.39;58.79;100679.28;10400063;28;20307;-36
2023/09/24 02:08:25;;;;;;;3.23;2.93;;;;;;;10.46;56.90;100575.56;10395533;28;20597;-37
2023/09/24 02:13:27;;;;;;;3.93;3.03;;;;;;;11.83;53.99;100522.19;10398702;28;20653;-37
2023/09/24 02:18:32;;;;;;;3.67;2.23;;;;;;;10.84;54.92;100662.50;10394062;28;20306;-36
2023/09/24 02:23:36;;;;;;;7.00;2.30;;;;;;;11.08;54.52;100607.28;10399798;28;20229;-36
2023/09/24 02:28:39;;;;;;;3.57;2.73;;;;;;;11.54;53.60;100567.38;10400997;28;20294;-37
2023/09/24 02:33:40;;;;;;;3.53;2.60;;;;;;;11.44;53.60;100578.28;10395594;28;20229;-37
2023/09/24 02:38:43;;;;;;;6.00;2.43;;;;;;;10.26;55.18;100714.09;10397289;28;20235;-36
2023/09/24 02:43:45;;;;;;;4.77;2.20;;;;;;;11.21;53.88;100598.75;10393897;28;20323;-36
2023/09/24 02:48:47;;;;;;;2.60;2.40;;;;;;;10.66;55.03;100659.94;10397022;28;20232;-35
2023/09/24 02:53:50;;;;;;;2.93;2.50;;;;;;;10.25;55.18;100702.56;10398185;28;20259;-36
2023/09/24 02:58:52;;;;;;;3.07;2.73;;;;;;;10.72;55.03;100634.34;10396721;28;20231;-35
2023/09/24 03:03:54;;;;;;;4.77;2.50;;;;;;;11.17;54.59;100578.63;10392189;28;20258;-35
2023/09/24 03:08:57;;;;;;;2.87;2.67;;;;;;;10.25;55.78;100701.75;10394985;28;20714;-36
2023/09/24 03:13:59;;;;;;;2.90;2.70;;;;;;;10.07;56.31;100681.28;10397889;28;20213;-36
2023/09/24 03:19:01;;;;;;;5.37;2.63;;;;;;;9.70;56.40;100686.84;10391160;28;20244;-35
2023/09/24 03:24:10;;;;;;;6.57;3.37;;;;;;;9.54;56.94;100707.13;10395606;28;20315;-36
2023/09/24 03:29:12;;;;;;;13.40;3.90;;;;;;;10.07;57.74;100640.31;10394909;28;20252;-35
2023/09/24 03:34:14;;;;;;;7.83;3.50;;;;;;;9.82;58.96;100647.31;10394130;28;20237;-35
2023/09/24 03:39:16;;;;;;;12.17;3.50;;;;;;;9.75;58.60;100669.38;10396003;28;20240;-36
2023/09/24 03:44:18;;;;;;;6.83;3.10;;;;;;;9.47;59.45;100674.00;10385540;28;20263;-36
2023/09/24 03:49:19;;;;;;;5.10;2.90;;;;;;;10.45;57.21;100595.31;10400494;28;20244;-36
2023/09/24 03:54:21;;;;;;;4.80;3.00;;;;;;;10.03;57.29;100655.84;10398364;28;20232;-35
2023/09/24 03:59:23;;;;;;;10.23;3.20;;;;;;;9.91;56.93;100679.34;10405355;28;20341;-36
2023/09/24 04:04:26;;;;;;;3.37;3.03;;;;;;;10.59;55.82;100596.50;10401888;28;20236;-36
2023/09/24 04:09:32;;;;;;;11.60;3.47;;;;;;;10.20;56.18;100669.28;10400974;28;20314;-36
2023/09/24 04:14:35;;;;;;;3.93;2.97;;;;;;;10.22;56.80;100669.97;10399384;28;20244;-35
2023/09/24 04:19:37;;;;;;;7.53;3.13;;;;;;;10.14;56.88;100684.13;10400812;28;20717;-36
2023/09/24 04:24:40;;;;;;;5.03;3.30;;;;;;;10.55;56.68;100628.13;10395816;28;20232;-36
2023/09/24 04:29:41;;;;;;;10.33;4.00;;;;;;;10.53;56.55;100662.22;10398577;28;20239;-36
2023/09/24 04:34:46;;;;;;;8.03;3.60;;;;;;;9.04;60.23;100747.72;10399945;28;20224;-35
2023/09/24 04:39:48;;;;;;;6.17;3.73;;;;;;;9.94;59.16;100627.41;10400015;28;20260;-35
2023/09/24 04:44:50;;;;;;;9.40;3.70;;;;;;;10.07;58.33;100651.00;10397626;28;20831;-35
2023/09/24 04:49:52;;;;;;;17.83;3.50;;;;;;;9.56;58.82;100694.44;10403319;28;20295;-36
2023/09/24 04:54:54;;;;;;;10.10;2.90;;;;;;;9.76;58.20;100695.06;10394432;28;20239;-35
2023/09/24 04:59:55;;;;;;;3.60;2.90;;;;;;;9.99;56.71;100699.09;10402339;28;20998;-35
2023/09/24 05:04:57;;;;;;;10.43;3.30;;;;;;;10.04;56.67;100735.06;10397063;28;20255;-35
2023/09/24 05:09:59;;;;;;;2.80;2.60;;;;;;;10.17;56.33;100729.28;10405204;28;20221;-35
2023/09/24 05:15:03;;;;;;;6.63;3.40;;;;;;;8.93;59.04;100858.22;10398222;28;20378;-35
2023/09/24 05:20:07;;;;;;;4.93;3.20;;;;;;;8.78;60.70;100798.28;10412458;22;20236;-35
2023/09/24 05:25:09;;;;;;;7.37;2.87;;;;;;;9.37;59.37;100729.34;10404098;28;20225;-35
2023/09/24 05:30:11;;;;;;;7.67;3.40;;;;;;;9.25;59.09;100738.56;10405644;28;20684;-35
2023/09/24 05:35:13;;;;;;;4.87;2.90;;;;;;;9.70;58.26;100701.06;10403636;28;20236;-35
2023/09/24 05:40:15;;;;;;;11.20;3.47;;;;;;;10.54;57.15;100671.09;10406591;28;20245;-36
2023/09/24 05:45:18;;;;;;;12.13;4.33;;;;;;;10.96;55.95;100699.66;10394040;28;20232;-36
2023/09/24 05:50:19;;;;;;;11.60;3.00;;;;;;;10.78;56.50;100715.84;10399766;28;20232;-36
2023/09/24 05:55:21;;;;;;;4.33;2.70;;;;;;;10.96;55.22;100780.00;10398941;28;20209;-36
2023/09/24 06:00:24;;;;;;;3.47;3.13;;;;;;;11.06;55.61;100754.75;10407117;28;20775;-36
2023/09/24 06:05:25;;;;;;;3.40;3.10;;;;;;;11.17;54.71;100793.81;10404275;28;20255;-36
2023/09/24 06:10:27;;;;;;;3.83;3.00;;;;;;;11.34;54.80;100780.41;10397738;28;20239;-36
2023/09/24 06:15:29;;;;;;;4.17;2.87;;;;;;;10.02;56.29;100928.75;10402223;28;20247;-36
2023/09/24 06:20:31;;;;;;;5.53;3.40;;;;;;;10.17;56.64;100875.56;10403134;28;21157;-36
2023/09/24 06:25:33;;;;;;;3.60;2.93;;;;;;;9.93;57.13;100896.59;10402721;28;20220;-36
2023/09/24 06:30:38;;;;;;;6.30;2.83;;;;;;;10.48;56.79;100811.75;10400082;28;20244;-36
2023/09/24 06:35:40;;;;;;;3.30;3.00;;;;;;;10.57;56.85;100778.66;10400109;28;20230;-36
2023/09/24 06:40:42;;;;;;;3.30;2.83;;;;;;;10.01;58.54;100828.97;10398925;28;20711;-36
2023/09/24 06:45:44;;;;;;;3.33;2.80;;;;;;;10.24;58.73;100802.56;10397577;28;20227;-36
2023/09/24 06:50:46;;;;;;;3.10;2.80;;;;;;;11.71;55.74;100699.56;10400759;28;20268;-36
2023/09/24 06:55:47;;;;;;;3.13;2.77;;;;;;;9.78;59.81;100877.53;10395950;28;20856;-36
2023/09/24 07:00:49;;;;;;;2.90;2.60;;;;;;;11.62;56.50;100714.81;10401018;28;20780;-36
2023/09/24 07:05:51;;;;;;;2.43;2.30;;;;;;;11.81;55.58;100787.84;10405048;28;20301;-35
2023/09/24 07:11:27;;;;;;;3.50;3.17;;;;;;;10.12;59.68;100849.28;10392243;28;20237;-35
2023/09/24 07:16:30;;;;;;;3.97;3.57;;;;;;;11.67;56.41;100850.19;10396654;28;20289;-36
2023/09/24 07:21:33;;;;;;;3.10;2.80;;;;;;;10.69;58.16;100959.41;10407214;28;20240;-35
2023/09/24 07:26:38;;;;;;;3.73;3.40;;;;;;;9.99;61.63;100894.28;10403227;28;20240;-35
2023/09/24 07:31:41;;;;;;;4.90;4.00;;;;;;;9.88;62.88;100868.63;10402632;28;20277;-36
2023/09/24 07:36:43;;;;;;;4.50;4.10;;;;;;;9.74;63.91;100848.59;10404238;28;20297;-36
2023/09/24 07:42:03;;;;;;;4.20;3.60;;;;;;;12.04;58.20;100795.22;10411283;28;20271;-36
2023/09/24 07:47:05;;;;;;;4.17;3.63;;;;;;;12.21;56.49;100845.16;10408189;28;20275;-35
2023/09/24 07:52:07;;;;;;;4.17;3.70;;;;;;;12.02;57.92;100909.91;10403228;28;20327;-36
2023/09/24 07:57:08;;;;;;;6.93;3.70;;;;;;;10.46;61.61;100985.84;10405956;28;20338;-36
2023/09/24 08:02:10;;;;;;;8.47;5.60;;;;;;;9.71;65.35;100895.16;10402428;28;20233;-36
2023/09/24 08:07:12;;;;;;;9.87;6.20;;;;;;;10.03;64.74;100855.56;10404050;28;20674;-36
2023/09/24 08:12:16;;;;;;;12.03;6.13;;;;;;;10.36;63.23;100850.44;10404554;28;20316;-36
2023/09/24 08:17:17;;;;;;;9.03;6.77;;;;;;;10.15;64.30;100871.19;10402744;28;20301;-37
2023/09/24 08:22:21;;;;;;;7.53;6.17;;;;;;;10.88;62.03;100789.72;10404464;28;20236;-37
2023/09/24 08:27:23;;;;;;;7.67;5.73;;;;;;;10.36;63.87;100890.56;10399665;28;20970;-36
2023/09/24 08:32:24;;;;;;;6.60;5.20;;;;;;;10.62;62.62;100840.56;10405975;28;20247;-36
2023/09/24 08:37:26;;;;;;;7.87;4.97;;;;;;;11.67;59.80;100858.25;10401410;28;20326;-36
2023/09/24 08:42:31;;;;;;;7.70;4.57;;;;;;;12.38;58.96;100762.78;10406625;28;20796;-36
2023/09/24 08:47:34;;;;;;;6.90;4.73;;;;;;;13.15;57.38;100805.13;10405222;28;20236;-36
2023/09/24 08:52:39;;;;;;;7.50;4.47;;;;;;;11.40;60.45;100975.41;10403656;28;20576;-37
2023/09/24 08:57:45;;;;;;;6.77;5.43;;;;;;;12.22;58.21;100958.72;10401072;28;20283;-37
2023/09/24 09:02:47;;;;;;;5.67;4.30;;;;;;;13.88;56.27;100751.00;10402284;28;20258;-37
2023/09/24 09:07:56;;;;;;;5.17;3.60;;;;;;;12.71;56.75;100985.59;10402389;28;20737;-35
2023/09/24 09:13:02;;;;;;;6.17;3.67;;;;;;;13.70;54.86;100994.25;10399139;28;20278;-36
2023/09/24 09:18:05;;;;;;;7.23;3.27;;;;;;;14.12;54.81;100971.50;10383420;28;20552;-36
2023/09/24 09:23:12;;;;;;;4.57;3.40;;;;;;;14.28;54.95;100878.16;10375114;28;20253;-37
2023/09/24 09:28:28;;;;;;;4.07;3.23;;;;;;;13.99;55.94;100885.09;10399256;28;20235;-35
2023/09/24 09:33:33;;;;;;;4.60;2.80;;;;;;;14.76;54.48;100857.09;10397537;28;20237;-37
2023/09/24 09:38:34;;;;;;;5.00;2.47;;;;;;;14.87;52.82;100896.25;10401513;28;20231;-37
2023/09/24 09:43:38;;;;;;;2.37;2.17;;;;;;;14.66;52.92;100948.13;10397576;28;20307;-37
2023/09/24 09:48:42;;;;;;;3.20;2.73;;;;;;;15.80;51.44;100832.63;10400268;28;20232;-37
2023/09/24 09:53:45;;;;;;;4.43;2.10;;;;;;;14.98;53.18;100885.00;10400819;28;20225;-35
2023/09/24 09:58:51;;;;;;;2.17;1.97;;;;;;;13.97;52.94;100971.38;10395534;28;20322;-36
2023/09/24 10:03:55;;;;;;;7.93;2.40;;;;;;;14.64;53.14;100929.47;10399345;28;20256;-35
2023/09/24 10:08:57;;;;;;;2.47;2.27;;;;;;;14.69;51.77;100935.13;10378155;28;20679;-38
2023/09/24 10:14:06;;;;;;;4.70;2.20;;;;;;;15.41;50.67;100863.53;10395510;28;20262;-36
2023/09/24 10:19:12;;;;;;;2.80;2.03;;;;;;;15.57;49.23;100815.81;10394711;28;20221;-36
2023/09/24 10:24:14;;;;;;;3.73;2.23;;;;;;;15.30;49.14;100826.28;10395338;28;20315;-36
2023/09/24 10:29:18;;;;;;;2.77;2.23;;;;;;;14.78;48.59;100966.38;10398229;28;20225;-37
2023/09/24 10:34:19;;;;;;;2.93;2.20;;;;;;;15.64;48.91;100846.38;10395681;28;20395;-37
2023/09/24 10:39:21;;;;;;;2.57;2.37;;;;;;;14.95;47.95;100952.78;10402667;28;20236;-37
2023/09/24 10:44:24;;;;;;;3.67;2.30;;;;;;;15.61;48.94;100890.78;10401230;28;20210;-36
2023/09/24 10:49:26;;;;;;;1.70;1.60;;;;;;;16.72;45.29;100811.06;10401000;28;20240;-36
2023/09/24 10:54:28;;;;;;;3.00;2.27;;;;;;;16.65;47.01;100815.59;10401446;28;20236;-36
2023/09/24 10:59:34;;;;;;;4.23;2.33;;;;;;;16.03;46.91;100893.69;10397440;28;20369;-36
2023/09/24 11:06:14;;;;;;;4.43;2.10;;;;;;;15.15;47.29;100826.34;10457614;27;2098202;-75
2023/09/24 11:11:16;;;;;;;2.60;2.00;;;;;;;15.18;48.20;100835.91;10422481;28;20228;-74
2023/09/24 11:16:19;;;;;;;2.33;2.10;;;;;;;15.82;48.25;100783.88;10423406;28;20790;-74
2023/09/24 11:21:30;;;;;;;2.53;2.07;;;;;;;15.95;45.07;100831.72;10424255;28;20231;-73
2023/09/24 11:26:32;;;;;;;2.43;2.10;;;;;;;15.96;45.28;100827.97;10422957;28;20232;-75
2023/09/24 11:31:34;;;;;;;2.05;1.70;;;;;;;15.47;44.72;100899.69;10416370;28;20236;-74
2023/09/24 11:36:35;;;;;;;3.07;1.97;;;;;;;15.61;44.16;100892.66;10422710;28;20715;-73
2023/09/24 11:41:37;;;;;;;2.97;2.07;;;;;;;15.48;41.45;100925.66;10447506;28;20834;-73
2023/09/24 11:46:40;;;;;;;1.90;1.80;;;;;;;15.91;43.43;100850.19;10467377;28;20617;-74
2023/09/24 11:51:42;;;;;;;2.07;1.87;;;;;;;15.52;44.48;100852.25;10431507;28;20314;-73
2023/09/24 11:56:43;;;;;;;1.83;1.67;;;;;;;16.51;43.37;100785.81;10461562;28;20243;-74
2023/09/24 12:01:45;;;;;;;2.13;1.83;;;;;;;15.39;44.49;100879.09;10446187;28;20231;-74
2023/09/24 12:06:47;;;;;;;3.15;1.60;;;;;;;16.46;44.00;100769.38;10439868;28;20587;-73
2023/09/24 12:11:48;;;;;;;1.92;1.75;;;;;;;16.42;43.69;100787.84;10425038;28;20228;-74
2023/09/24 12:16:54;;;;;;;3.15;1.83;;;;;;;16.22;44.96;100794.97;10408822;28;20765;-74
2023/09/24 12:21:55;;;;;;;3.20;2.00;;;;;;;16.51;43.21;100720.97;10402022;28;20268;-74
2023/09/24 12:26:57;;;;;;;2.20;2.03;;;;;;;15.94;44.04;100795.78;10405081;28;20252;-74
2023/09/24 12:31:59;;;;;;;2.97;1.83;;;;;;;16.38;42.45;100777.63;10400687;28;20694;-74
2023/09/24 12:37:00;;;;;;;2.72;1.92;;;;;;;16.51;42.58;100766.06;10402246;28;20263;-72
2023/09/24 12:42:02;;;;;;;3.33;1.95;;;;;;;16.91;42.49;100744.63;10384012;28;20319;-73
2023/09/24 12:47:04;;;;;;;2.50;1.95;;;;;;;16.83;43.29;100734.00;10371829;28;20241;-74
2023/09/24 12:52:06;;;;;;;3.65;2.10;;;;;;;16.64;41.86;100736.41;10391643;28;20622;-74
2023/09/24 12:57:08;;;;;;;2.40;1.90;;;;;;;17.11;41.01;100712.25;10393989;28;20978;-73
2023/09/24 13:02:10;;;;;;;4.93;2.10;;;;;;;16.85;42.49;100726.50;10392272;28;20379;-74
2023/09/24 13:07:11;;;;;;;2.42;2.22;;;;;;;16.43;43.39;100686.88;10390268;28;20988;-73
2023/09/24 13:12:15;;;;;;;2.80;2.10;;;;;;;16.57;42.78;100695.03;10394942;28;20315;-74
2023/09/24 13:17:16;;;;;;;2.25;1.90;;;;;;;16.80;42.44;100705.47;10375618;28;20343;-74
2023/09/24 13:22:18;;;;;;;4.15;2.42;;;;;;;16.48;42.39;100771.88;10387357;28;20632;-73
2023/09/24 13:27:20;;;;;;;2.60;2.17;;;;;;;16.03;42.11;100780.31;10390997;28;20324;-73
2023/09/24 13:32:22;;;;;;;3.03;2.17;;;;;;;17.30;41.47;100615.94;10391426;28;20319;-73
2023/09/24 13:37:24;;;;;;;4.53;2.00;;;;;;;16.49;41.97;100714.94;10391394;28;20240;-73
2023/09/24 13:42:26;;;;;;;3.38;2.05;;;;;;;17.74;41.40;100622.56;10387285;28;20247;-73
2023/09/24 13:47:27;;;;;;;2.47;1.83;;;;;;;17.59;40.86;100657.94;10390836;28;20518;-73
2023/09/24 13:52:29;;;;;;;2.20;2.00;;;;;;;16.75;41.16;100756.59;10389415;28;20235;-72
2023/09/24 13:57:31;;;;;;;2.97;2.03;;;;;;;18.12;40.31;100583.06;10390450;28;20246;-74
2023/09/24 14:02:33;;;;;;;5.03;1.75;;;;;;;17.46;40.50;100637.16;10369642;28;20310;-73
2023/09/24 14:07:34;;;;;;;2.75;1.80;;;;;;;18.27;39.16;100638.63;10389772;28;20339;-69
2023/09/24 14:12:36;;;;;;;2.92;2.13;;;;;;;17.81;39.75;100636.06;10387074;28;20262;-75
2023/09/24 14:17:38;;;;;;;2.67;2.47;;;;;;;18.59;39.20;100573.66;10390381;28;20263;-74
2023/09/24 14:22:40;;;;;;;2.75;1.50;;;;;;;18.23;39.04;100629.25;10389033;28;21010;-75
2023/09/24 14:27:42;;;;;;;2.35;1.55;;;;;;;17.47;39.64;100675.84;10390382;28;21154;-73
2023/09/24 14:32:44;;;;;;;4.22;1.80;;;;;;;17.67;40.48;100606.34;10388409;28;20234;-74
2023/09/24 14:37:46;;;;;;;2.70;1.70;;;;;;;16.86;40.62;100629.00;10389313;28;20243;-74
2023/09/24 14:42:48;;;;;;;3.58;1.75;;;;;;;17.35;40.03;100565.56;10384324;28;20228;-75
2023/09/24 14:47:50;;;;;;;2.92;1.90;;;;;;;17.67;40.28;100560.31;10381888;28;20237;-74
2023/09/24 14:52:52;;;;;;;2.13;1.92;;;;;;;17.60;40.40;100531.59;10368078;28;20598;-74
2023/09/24 14:57:53;;;;;;;3.15;1.60;;;;;;;17.33;40.70;100591.19;10385184;28;20272;-74
2023/09/24 15:02:59;;;;;;;3.45;1.80;;;;;;;17.02;40.45;100553.97;10384388;28;20334;-74
2023/09/24 15:08:01;;;;;;;3.65;1.90;;;;;;;17.41;40.41;100538.72;10384875;28;20232;-73
2023/09/24 15:13:02;;;;;;;4.13;1.83;;;;;;;17.97;40.20;100511.06;10385721;28;20238;-73
2023/09/24 15:18:04;;;;;;;1.95;1.80;;;;;;;17.51;39.73;100561.59;10383815;28;20240;-75
2023/09/24 15:23:11;;;;;;;3.17;1.90;;;;;;;17.87;39.71;100521.53;10384591;28;21178;-73
2023/09/24 15:28:13;;;;;;;4.60;2.28;;;;;;;17.34;40.41;100561.22;10385659;28;20715;-74
2023/09/24 15:33:17;;;;;;;2.35;1.75;;;;;;;16.87;40.91;100494.66;10385799;28;20233;-74
2023/09/24 15:38:19;;;;;;;3.03;2.10;;;;;;;17.49;40.72;100487.91;10385139;28;20618;-74
2023/09/24 15:43:21;;;;;;;4.95;2.00;;;;;;;17.11;41.19;100571.66;10387635;28;20355;-77
2023/09/24 15:48:23;;;;;;;2.20;1.85;;;;;;;16.64;40.83;100559.97;10383358;28;20237;-78
2023/09/24 15:53:25;;;;;;;2.60;1.90;;;;;;;17.13;40.09;100531.69;10392966;28;20958;-72
2023/09/24 15:58:26;;;;;;;4.05;1.70;;;;;;;17.21;40.19;100482.81;10387648;28;20328;-72
2023/09/24 16:03:29;;;;;;;2.10;1.90;;;;;;;17.23;40.01;100493.41;10391716;28;20355;-68
2023/09/24 16:08:31;;;;;;;2.47;1.83;;;;;;;17.01;40.39;100506.34;10388575;28;20255;-69
2023/09/24 16:13:33;;;;;;;3.53;1.77;;;;;;;16.51;40.12;100642.63;10392350;28;20294;-70
2023/09/24 16:18:34;;;;;;;1.95;1.80;;;;;;;16.85;40.41;100578.66;10387070;28;20329;-71
2023/09/24 16:23:36;;;;;;;2.88;2.20;;;;;;;16.93;40.27;100564.94;10388971;28;20233;-70
2023/09/24 16:28:38;;;;;;;3.75;2.00;;;;;;;16.77;40.08;100582.41;10388122;28;20625;-70
2023/09/24 16:33:43;;;;;;;2.03;1.83;;;;;;;16.98;40.17;100557.06;10391068;28;20232;-69
2023/09/24 16:38:45;;;;;;;2.50;1.77;;;;;;;17.26;39.94;100490.25;10389493;28;20256;-70
2023/09/24 16:43:46;;;;;;;3.38;1.90;;;;;;;17.30;40.10;100532.91;10391507;28;20247;-70
2023/09/24 16:48:49;;;;;;;2.22;1.95;;;;;;;16.88;40.17;100589.06;10388588;28;20252;-72
2023/09/24 16:53:51;;;;;;;3.95;2.42;;;;;;;16.92;40.59;100500.28;10389996;28;20607;-70
2023/09/24 16:58:52;;;;;;;2.45;2.20;;;;;;;16.81;40.70;100531.47;10389618;28;20710;-71
2023/09/24 17:03:54;;;;;;;3.63;2.00;;;;;;;17.34;40.51;100398.06;10388541;28;20235;-70
2023/09/24 17:08:56;;;;;;;3.60;1.95;;;;;;;16.81;40.97;100470.13;10388359;28;20217;-70
2023/09/24 17:13:58;;;;;;;6.28;2.05;;;;;;;16.21;41.97;100499.81;10391088;28;20201;-70
2023/09/24 17:19:00;;;;;;;1.88;1.77;;;;;;;16.00;42.02;100525.06;10386122;28;20262;-69
2023/09/24 17:24:02;;;;;;;1.93;1.73;;;;;;;16.06;42.14;100459.50;10387921;28;20233;-70
2023/09/24 17:29:04;;;;;;;2.97;2.13;;;;;;;17.04;41.47;100395.06;10384574;28;20232;-70
2023/09/24 17:34:05;;;;;;;2.57;1.80;;;;;;;16.75;41.24;100453.94;10391114;28;20240;-68
2023/09/24 17:39:07;;;;;;;2.73;2.23;;;;;;;16.61;42.07;100426.09;10382881;28;20319;-69
2023/09/24 17:44:10;;;;;;;2.20;2.00;;;;;;;15.44;43.92;100402.00;10387307;28;20225;-67
2023/09/24 17:49:12;;;;;;;2.43;2.00;;;;;;;16.11;42.86;100364.41;10384026;28;20237;-67
2023/09/24 17:54:14;;;;;;;3.23;2.13;;;;;;;16.29;42.72;100374.59;10388431;28;20239;-70
2023/09/24 17:59:16;;;;;;;2.93;2.00;;;;;;;16.31;42.44;100394.09;10385088;28;20240;-69
2023/09/24 18:04:17;;;;;;;3.93;2.17;;;;;;;15.06;44.03;100456.34;10388075;28;20374;-69
2023/09/24 18:09:21;;;;;;;3.90;2.27;;;;;;;15.65;43.80;100341.69;10384335;28;20243;-69
2023/09/24 18:14:22;;;;;;;4.93;2.40;;;;;;;15.52;43.52;100396.41;10382634;28;20232;-69
2023/09/24 18:19:24;;;;;;;2.10;1.80;;;;;;;15.39;43.44;100458.41;10384119;28;20746;-69
2023/09/24 18:24:29;;;;;;;3.70;2.37;;;;;;;15.18;43.53;100523.19;10387566;28;20455;-70
2023/09/24 18:29:31;;;;;;;2.30;2.10;;;;;;;14.60;44.71;100502.59;10382639;28;20326;-67
2023/09/24 18:34:32;;;;;;;1.87;1.73;;;;;;;14.35;45.00;100521.00;10390089;28;20252;-67
2023/09/24 18:39:34;;;;;;;3.27;2.07;;;;;;;15.32;44.38;100352.38;10384139;28;20354;-70
2023/09/24 18:44:37;;;;;;;2.70;2.10;;;;;;;14.23;45.14;100558.34;10383908;28;20237;-70
2023/09/24 18:49:39;;;;;;;2.10;1.60;;;;;;;13.61;46.42;100513.91;10383709;28;20322;-70
2023/09/24 18:54:41;;;;;;;2.13;1.83;;;;;;;14.26;46.26;100374.94;10386555;28;20318;-70
2023/09/24 18:59:43;;;;;;;2.10;1.90;;;;;;;13.45;47.04;100499.63;10382809;28;20385;-70
2023/09/24 19:04:44;;;;;;;2.30;1.90;;;;;;;13.59;46.47;100489.06;10388132;28;20287;-70
2023/09/24 19:09:46;;;;;;;3.40;2.50;;;;;;;13.46;47.48;100454.75;10382436;28;20239;-70
2023/09/24 19:14:48;;;;;;;4.93;2.00;;;;;;;14.43;45.94;100328.91;10381906;28;20475;-70
2023/09/24 19:19:50;;;;;;;2.83;2.10;;;;;;;13.52;47.32;100464.78;10381357;28;20723;-70
2023/09/24 19:24:52;;;;;;;2.57;1.77;;;;;;;13.26;48.13;100416.84;10367434;28;20236;-71
2023/09/24 19:29:58;;;;;;;2.80;2.13;;;;;;;13.55;47.65;100416.00;10389925;28;20317;-70
2023/09/24 19:35:01;;;;;;;5.27;2.40;;;;;;;13.62;47.14;100429.53;10402592;28;20224;-70
2023/09/24 19:40:08;;;;;;;2.27;1.90;;;;;;;14.40;46.35;100336.31;10422674;28;20239;-70
2023/09/24 19:45:10;;;;;;;2.57;2.23;;;;;;;13.69;47.33;100437.69;10375853;28;20274;-71
2023/09/24 19:50:12;;;;;;;2.87;2.20;;;;;;;13.47;47.52;100392.75;10401670;28;20242;-68
2023/09/24 19:55:14;;;;;;;3.63;2.23;;;;;;;12.44;49.19;100511.63;10407384;28;20237;-72
2023/09/24 20:00:16;;;;;;;3.20;2.37;;;;;;;13.70;47.83;100332.59;10405030;28;20270;-70
2023/09/24 20:05:18;;;;;;;4.30;2.50;;;;;;;13.12;48.41;100426.59;10418323;28;20275;-70
2023/09/24 20:10:19;;;;;;;2.87;2.33;;;;;;;11.95;50.58;100531.56;10407724;28;20377;-69
2023/09/24 20:15:21;;;;;;;2.77;2.20;;;;;;;13.84;48.24;100256.38;10405321;28;20290;-68
2023/09/24 20:20:24;;;;;;;2.67;2.20;;;;;;;13.91;47.25;100403.56;10403065;28;20656;-70
2023/09/24 20:25:52;;;;;;;2.80;2.47;;;;;;;14.48;46.59;100353.38;10404340;28;20243;-70
2023/09/24 20:30:57;;;;;;;2.73;2.53;;;;;;;13.52;47.46;100506.97;10396705;28;20231;-69
2023/09/24 20:35:59;;;;;;;3.50;2.23;;;;;;;14.21;46.96;100398.91;10403962;28;20263;-70
